Time;durP1;ratioP1;P1;durP2;ratioP2;P2;SDS_P1;SDS_P2;PMS_P1;PMS_P2;Temp;Humidity;BMP_temperature;BMP_pressure;BME280_temperature;BME280_humidity;BME280_pressure;Samples;Min_cycle;Max_cycle;Signal;HPM_P1;HPM_P2
2022/07/22 00:02:09;;;;;;;;;12.00;11.00;;;;;21.46;60.60;99646.03;6304711;20;3513809;-61
2022/07/22 00:04:38;;;;;;;;;12.67;11.33;;;;;21.29;61.19;99644.19;6309547;20;3505515;-61
2022/07/22 00:07:07;;;;;;;;;11.33;9.67;;;;;21.23;61.36;99643.00;6307236;20;3507604;-61
2022/07/22 00:09:35;;;;;;;;;9.00;9.00;;;;;21.59;59.61;99651.88;6306643;20;2764873;-59
2022/07/22 00:12:04;;;;;;;;;10.00;10.00;;;;;21.58;59.65;99650.13;6314073;20;2788905;-58
2022/07/22 00:14:32;;;;;;;;;12.00;9.50;;;;;21.45;60.40;99638.81;6287350;20;2779414;-59
2022/07/22 00:17:00;;;;;;;;;14.00;10.00;;;;;21.54;59.62;99643.31;6280642;20;2784727;-59
2022/07/22 00:19:29;;;;;;;;;11.33;11.33;;;;;21.67;60.13;99651.03;6311046;20;2792057;-58
2022/07/22 00:21:58;;;;;;;;;10.67;9.67;;;;;21.62;60.06;99650.69;6309202;20;3504441;-59
2022/07/22 00:24:26;;;;;;;;;9.00;9.00;;;;;21.37;61.06;99645.09;6309200;20;3469148;-59
2022/07/22 00:26:56;;;;;;;;;15.33;13.00;;;;;21.43;61.01;99641.75;6306067;20;3523278;-59
2022/07/22 00:29:24;;;;;;;;;14.33;11.67;;;;;21.22;61.45;99644.88;6305813;20;3522235;-59
2022/07/22 00:31:52;;;;;;;;;10.00;10.00;;;;;21.42;61.29;99633.69;6311226;20;2792001;-59
2022/07/22 00:34:21;;;;;;;;;11.67;11.67;;;;;21.27;61.72;99636.16;6277594;20;3513769;-59
2022/07/22 00:36:49;;;;;;;;;10.00;8.00;;;;;21.34;60.83;99633.63;6314529;20;2768058;-59
2022/07/22 00:39:18;;;;;;;;;11.00;11.00;;;;;21.68;58.17;99634.44;6277333;20;2785873;-59
2022/07/22 00:41:46;;;;;;;;;7.00;7.00;;;;;21.88;56.22;99631.41;6317970;20;2739914;-61
2022/07/22 00:44:16;;;;;;;;;8.00;7.00;;;;;21.86;55.78;99639.78;6309595;20;2750256;-59
2022/07/22 00:46:45;;;;;;;;;14.67;13.00;;;;;21.37;58.78;99645.09;6276808;20;2794027;-59
2022/07/22 00:49:13;;;;;;;;;9.33;9.00;;;;;21.17;59.73;99649.97;6308002;20;2746082;-59
2022/07/22 00:51:42;;;;;;;;;11.00;10.00;;;;;20.95;60.97;99648.63;6311984;20;2786729;-59
2022/07/22 00:54:10;;;;;;;;;10.00;10.00;;;;;20.91;61.16;99649.16;6273278;20;3515896;-59
2022/07/22 00:56:39;;;;;;;;;14.67;10.00;;;;;20.59;61.78;99637.00;6302178;20;2795300;-59
2022/07/22 00:59:11;;;;;;;;;10.00;10.00;;;;;20.47;61.70;99647.28;6310000;20;2789953;-59
2022/07/22 01:01:41;;;;;;;;;9.80;9.20;;;;;20.34;61.98;99644.97;6298445;20;2757575;-59
2022/07/22 01:04:09;;;;;;;;;9.00;9.00;;;;;20.09;62.81;99648.47;6274879;20;2748267;-59
2022/07/22 01:06:39;;;;;;;;;11.00;10.00;;;;;20.55;60.71;99660.16;6297807;20;2784715;-59
2022/07/22 01:09:07;;;;;;;;;12.00;9.33;;;;;20.34;61.52;99657.75;6277662;20;2769039;-59
2022/07/22 01:11:36;;;;;;;;;9.00;9.00;;;;;20.91;58.98;99662.78;6308185;20;2751292;-59
2022/07/22 01:14:04;;;;;;;;;13.00;12.00;;;;;21.00;57.97;99662.66;6306216;20;3513828;-59
2022/07/22 01:16:33;;;;;;;;;10.00;8.67;;;;;21.11;57.54;99664.25;6304528;20;2772223;-61
2022/07/22 01:19:01;;;;;;;;;8.50;8.50;;;;;20.88;59.17;99665.81;6318710;20;2746108;-59
2022/07/22 01:21:31;;;;;;;;;9.40;9.40;;;;;20.75;59.21;99658.94;6305519;20;2781656;-59
2022/07/22 01:24:00;;;;;;;;;9.00;9.00;;;;;20.59;59.53;99669.75;6275296;20;2744159;-58
2022/07/22 01:26:30;;;;;;;;;10.00;9.40;;;;;20.78;58.78;99674.13;6332827;20;2786735;-59
2022/07/22 01:28:59;;;;;;;;;11.67;10.33;;;;;21.01;58.05;99668.97;6275750;20;2784656;-59
2022/07/22 01:31:30;;;;;;;;;8.60;8.60;;;;;20.74;58.16;99670.84;6333204;20;2751457;-59
2022/07/22 01:33:58;;;;;;;;;8.00;8.00;;;;;20.92;57.09;99670.81;6279860;20;2640069;-59
2022/07/22 01:36:28;;;;;;;;;8.20;8.20;;;;;20.93;57.22;99663.47;6300045;20;2751098;-58
2022/07/22 01:38:57;;;;;;;;;9.00;9.00;;;;;20.59;58.41;99656.13;6329141;20;2746126;-58
2022/07/22 01:41:28;;;;;;;;;10.00;8.20;;;;;20.38;59.43;99656.44;6300967;20;2741981;-59
2022/07/22 01:43:57;;;;;;;;;10.00;8.00;;;;;20.72;58.36;99653.81;6300894;20;2768051;-59
2022/07/22 01:46:25;;;;;;;;;10.00;7.00;;;;;20.68;58.18;99667.94;6278354;20;2754541;-59
2022/07/22 01:48:55;;;;;;;;;8.00;8.00;;;;;20.83;56.97;99661.72;6303688;20;2748174;-59
2022/07/22 01:51:26;;;;;;;;;8.80;8.00;;;;;20.92;56.62;99659.03;6300677;20;2746081;-57
2022/07/22 01:53:55;;;;;;;;;9.80;8.60;;;;;20.56;57.92;99657.28;6301338;20;2759724;-58
2022/07/22 01:56:25;;;;;;;;;10.00;9.80;;;;;20.22;59.66;99659.88;6295980;20;2788965;-55
2022/07/22 01:58:53;;;;;;;;;9.33;9.00;;;;;20.31;59.19;99660.78;6277003;20;2762748;-57
2022/07/22 02:01:24;;;;;;;;;8.00;7.00;;;;;20.38;58.63;99661.88;6331174;20;2748324;-58
2022/07/22 02:03:53;;;;;;;;;10.00;9.67;;;;;20.32;58.90;99662.50;6266851;20;2773228;-58
2022/07/22 02:06:22;;;;;;;;;10.00;8.00;;;;;20.09;59.34;99653.94;6327023;20;2767006;-58
2022/07/22 02:08:51;;;;;;;;;9.33;7.67;;;;;20.56;58.18;99657.28;6271305;20;2757601;-61
2022/07/22 02:11:21;;;;;;;;;10.80;9.20;;;;;20.59;58.40;99667.03;6330899;20;2781506;-59
2022/07/22 02:13:50;;;;;;;;;9.60;9.60;;;;;20.21;60.08;99655.41;6298904;20;2789970;-58
2022/07/22 02:16:20;;;;;;;;;9.00;9.00;;;;;20.29;60.52;99663.66;6300638;20;2737807;-59
2022/07/22 02:18:49;;;;;;;;;9.67;9.67;;;;;20.12;61.86;99650.91;6308042;20;2778600;-58
2022/07/22 02:21:18;;;;;;;;;10.00;9.33;;;;;19.99;61.23;99661.38;6303322;20;2771070;-58
2022/07/22 02:23:48;;;;;;;;;8.00;7.25;;;;;20.09;61.63;99659.38;6330056;20;2735703;-58
2022/07/22 02:26:16;;;;;;;;;8.50;8.00;;;;;20.15;61.44;99665.09;6308050;20;2736840;-58
2022/07/22 02:28:44;;;;;;;;;12.00;9.00;;;;;20.30;60.94;99659.94;6275002;20;2769002;-59
2022/07/22 02:31:12;;;;;;;;;9.00;8.00;;;;;20.67;59.63;99667.06;6277764;20;2739886;-58
2022/07/22 02:33:41;;;;;;;;;9.67;8.67;;;;;20.31;60.43;99667.09;6273599;20;2762943;-60
2022/07/22 02:36:10;;;;;;;;;10.25;8.75;;;;;19.86;61.95;99673.50;6330926;20;2787772;-61
2022/07/22 02:38:40;;;;;;;;;9.60;8.40;;;;;19.81;61.86;99675.81;6338027;20;2766175;-60
2022/07/22 02:41:10;;;;;;;;;8.50;8.50;;;;;20.09;59.74;99689.38;6306104;20;1925488;-60
2022/07/22 02:43:38;;;;;;;;;10.67;9.00;;;;;20.03;60.05;99690.00;6310833;20;3483622;-60
2022/07/22 02:46:07;;;;;;;;;10.33;8.67;;;;;20.02;59.56;99696.47;6311521;20;2768041;-60
2022/07/22 02:48:36;;;;;;;;;12.67;9.33;;;;;20.02;59.76;99693.75;6310825;20;2774380;-61
2022/07/22 02:51:03;;;;;;;;;9.00;7.50;;;;;19.82;60.36;99693.03;6309950;20;2747122;-60
2022/07/22 02:53:31;;;;;;;;;9.00;9.00;;;;;19.64;61.25;99685.66;6283200;20;2751347;-60
2022/07/22 02:56:01;;;;;;;;;9.00;7.60;;;;;19.68;60.60;99687.09;6304029;20;2755638;-60
2022/07/22 02:58:28;;;;;;;;;10.00;7.50;;;;;19.62;60.84;99697.72;6280212;20;2758655;-59
2022/07/22 03:00:56;;;;;;;;;8.00;8.00;;;;;19.75;59.92;99692.78;6281709;20;2744022;-60
2022/07/22 03:03:26;;;;;;;;;9.60;7.60;;;;;19.73;59.46;99700.25;6303513;20;2762822;-60
2022/07/22 03:05:56;;;;;;;;;8.00;6.80;;;;;20.02;58.70;99699.19;6306256;20;2745099;-60
2022/07/22 03:08:25;;;;;;;;;8.33;7.00;;;;;19.25;61.47;99695.91;6313644;20;2734701;-60
2022/07/22 03:10:54;;;;;;;;;7.60;7.60;;;;;19.42;60.55;99695.09;6333935;20;2732557;-60
2022/07/22 03:13:24;;;;;;;;;8.00;8.00;;;;;19.33;61.58;99696.00;6336929;20;2748185;-60
2022/07/22 03:15:54;;;;;;;;;10.40;8.40;;;;;19.49;60.26;99698.91;6334363;20;2758571;-60
2022/07/22 03:18:22;;;;;;;;;9.00;9.00;;;;;19.94;59.01;99691.81;6308481;20;2753378;-60
2022/07/22 03:20:52;;;;;;;;;10.40;9.60;;;;;19.77;59.64;99696.19;6337966;20;2790881;-60
2022/07/22 03:23:20;;;;;;;;;7.50;7.50;;;;;19.63;59.71;99700.28;6282593;20;2748263;-59
2022/07/22 03:25:49;;;;;;;;;10.00;8.20;;;;;19.53;60.73;99705.75;6305741;20;2764065;-61
2022/07/22 03:28:19;;;;;;;;;9.20;7.60;;;;;19.49;60.74;99696.19;6307379;20;2752362;-60
2022/07/22 03:30:46;;;;;;;;;10.00;8.50;;;;;19.60;60.37;99697.84;6315870;20;2769065;-60
2022/07/22 03:33:16;;;;;;;;;12.20;8.20;;;;;19.63;60.62;99704.88;6305374;20;2762841;-60
2022/07/22 03:35:45;;;;;;;;;11.00;9.33;;;;;19.78;60.81;99706.09;6275667;20;2779744;-62
2022/07/22 03:38:12;;;;;;;;;7.00;7.00;;;;;19.61;60.83;99702.28;6311728;20;2728474;-62
2022/07/22 03:40:42;;;;;;;;;11.60;8.40;;;;;19.71;61.03;99708.56;6307841;20;2777447;-62
2022/07/22 03:43:11;;;;;;;;;19.33;13.67;;;;;19.88;60.30;99708.75;6279983;20;3552521;-61
2022/07/22 03:45:40;;;;;;;;;9.20;7.20;;;;;19.78;60.71;99714.28;6303866;20;2742054;-62
2022/07/22 03:48:10;;;;;;;;;8.00;7.20;;;;;20.12;58.83;99716.34;6335441;20;2728442;-62
2022/07/22 03:50:40;;;;;;;;;9.80;8.00;;;;;19.94;60.05;99713.59;6337612;20;2770183;-62
2022/07/22 03:53:08;;;;;;;;;8.00;8.00;;;;;20.38;57.46;99717.28;6282735;20;2756496;-62
2022/07/22 03:55:37;;;;;;;;;9.80;8.00;;;;;20.24;57.49;99712.34;6297175;20;2749396;-62
2022/07/22 03:58:06;;;;;;;;;13.33;6.33;;;;;20.15;58.98;99707.84;6278022;20;2770182;-62
2022/07/22 04:00:35;;;;;;;;;11.50;6.50;;;;;20.25;58.41;99708.63;6317019;20;2767985;-62
2022/07/22 04:03:03;;;;;;;;;8.00;8.00;;;;;20.13;59.87;99712.59;6281297;20;2744025;-61
2022/07/22 04:05:31;;;;;;;;;8.00;7.00;;;;;20.44;58.01;99715.78;6283473;20;2727386;-59
2022/07/22 04:08:00;;;;;;;;;8.80;8.00;;;;;20.33;58.50;99714.16;6310399;20;2753627;-59
2022/07/22 04:10:30;;;;;;;;;11.20;6.20;;;;;20.20;60.07;99719.16;6307248;20;2755636;-59
2022/07/22 04:13:00;;;;;;;;;9.00;6.00;;;;;20.35;60.33;99720.31;6311935;20;2746202;-59
2022/07/22 04:15:29;;;;;;;;;7.00;7.00;;;;;20.32;59.45;99717.88;6334394;20;2737944;-60
2022/07/22 04:17:59;;;;;;;;;8.20;8.20;;;;;20.88;56.39;99734.06;6337645;20;2730488;-60
2022/07/22 04:20:29;;;;;;;;;8.60;6.00;;;;;21.17;55.48;99720.09;6335446;20;2733587;-60
2022/07/22 04:22:58;;;;;;;;;6.60;6.00;;;;;20.81;57.54;99714.75;6335742;20;2744520;-60
2022/07/22 04:25:28;;;;;;;;;9.00;7.40;;;;;20.96;56.72;99717.75;6332650;20;2738808;-60
2022/07/22 04:27:57;;;;;;;;;7.00;7.00;;;;;20.94;57.39;99717.91;6335162;20;2751325;-62
2022/07/22 04:30:27;;;;;;;;;9.00;7.80;;;;;21.16;56.57;99716.50;6336558;20;2744025;-62
2022/07/22 04:32:57;;;;;;;;;9.20;7.80;;;;;21.16;57.17;99705.56;6335352;20;2758594;-62
2022/07/22 04:35:26;;;;;;;;;10.33;8.67;;;;;21.44;56.91;99713.63;6276565;20;2764948;-62
2022/07/22 04:37:53;;;;;;;;;14.00;9.00;;;;;21.85;56.66;99727.41;6308952;20;2777383;-62
2022/07/22 04:40:23;;;;;;;;;13.00;8.00;;;;;21.66;58.34;99729.41;6305908;20;2771357;-62
2022/07/22 04:42:52;;;;;;;;;9.67;9.00;;;;;21.52;59.43;99727.31;6280759;20;2758825;-62
2022/07/22 04:45:20;;;;;;;;;12.00;9.00;;;;;21.77;58.97;99730.13;6307765;20;2770271;-62
2022/07/22 04:47:50;;;;;;;;;9.80;8.20;;;;;21.70;58.93;99724.50;6337010;20;2762788;-62
2022/07/22 04:50:19;;;;;;;;;10.00;9.33;;;;;21.61;60.67;99734.50;6278622;20;2754451;-59
2022/07/22 04:52:48;;;;;;;;;11.60;11.00;;;;;21.73;60.26;99726.03;6328104;20;2793477;-59
2022/07/22 04:55:18;;;;;;;;;9.20;7.80;;;;;21.92;58.04;99726.59;6300382;20;2761823;-59
2022/07/22 04:57:48;;;;;;;;;8.40;8.40;;;;;22.23;56.34;99719.69;6336082;20;2744095;-60
2022/07/22 05:00:18;;;;;;;;;8.60;7.00;;;;;22.54;54.31;99718.00;6332863;20;2748291;-60
2022/07/22 05:02:47;;;;;;;;;8.00;7.00;;;;;22.75;52.76;99716.63;6303346;20;2754418;-59
2022/07/22 05:05:17;;;;;;;;;7.40;7.40;;;;;23.09;51.05;99721.03;6296555;20;2735678;-59
2022/07/22 05:07:46;;;;;;;;;7.00;7.00;;;;;23.16;51.34;99716.59;6310058;20;2734675;-64
2022/07/22 05:10:14;;;;;;;;;6.00;6.00;;;;;23.38;50.82;99715.84;6301684;20;2741920;-65
2022/07/22 05:12:48;;;;;;;;;9.00;6.67;;;;;23.56;50.70;99721.06;6307877;20;2748180;-65
2022/07/22 05:15:17;;;;;;;;;7.00;5.33;;;;;23.87;49.58;99720.28;6315792;20;2740950;-65
2022/07/22 05:17:45;;;;;;;;;11.00;8.67;;;;;24.02;49.71;99723.13;6308965;20;2765282;-65
2022/07/22 05:20:16;;;;;;;;;13.20;8.60;;;;;24.34;50.55;99723.94;6336466;20;2777396;-65
2022/07/22 05:22:44;;;;;;;;;9.00;8.00;;;;;24.54;52.14;99722.47;6279318;20;2753421;-65
2022/07/22 05:25:13;;;;;;;;;9.00;8.33;;;;;24.86;52.64;99725.94;6307940;20;2745152;-66
2022/07/22 05:27:55;;;;;;;;;9.67;8.00;;;;;24.79;52.80;99724.97;6308005;20;2761736;-65
2022/07/22 05:30:25;;;;;;;;;7.20;6.80;;;;;25.18;50.57;99724.81;6333249;20;2744001;-65
2022/07/22 05:32:55;;;;;;;;;9.00;7.60;;;;;25.42;49.86;99731.06;6304036;20;2732557;-64
2022/07/22 05:35:23;;;;;;;;;9.00;6.00;;;;;25.54;51.04;99730.41;6285334;20;2738820;-65
2022/07/22 05:37:52;;;;;;;;;7.00;7.00;;;;;25.49;48.12;99729.25;6309142;20;3461773;-63
2022/07/22 05:40:21;;;;;;;;;6.33;6.33;;;;;25.98;45.22;99737.75;6307262;20;2735708;-64
2022/07/22 05:42:50;;;;;;;;;9.40;8.00;;;;;25.90;45.50;99729.63;6333587;20;2758625;-64
2022/07/22 05:45:20;;;;;;;;;8.40;6.60;;;;;26.12;43.91;99736.03;6296311;20;2739981;-64
2022/07/22 05:47:48;;;;;;;;;8.00;6.67;;;;;26.37;42.11;99736.50;6280717;20;2748196;-64
2022/07/22 05:50:18;;;;;;;;;7.80;6.80;;;;;26.63;42.02;99740.63;6332128;20;2744121;-63
2022/07/22 05:52:46;;;;;;;;;6.00;5.00;;;;;26.81;40.87;99743.75;6272061;20;2736874;-65
2022/07/22 05:55:15;;;;;;;;;5.67;5.67;;;;;26.78;40.89;99749.66;6306141;20;2746113;-63
2022/07/22 05:57:45;;;;;;;;;9.00;6.00;;;;;27.08;40.01;99746.72;6330295;20;2748573;-54
2022/07/22 06:00:15;;;;;;;;;7.00;5.20;;;;;27.21;40.51;99749.59;6296410;20;2733632;-56
2022/07/22 06:02:44;;;;;;;;;3.00;1.20;;;;;27.21;41.13;99759.78;6301719;20;2739834;-60
2022/07/22 06:05:14;;;;;;;;;2.60;1.80;;;;;27.56;40.24;99749.63;6335235;20;2749282;-53
2022/07/22 06:08:04;;;;;;;;;9.00;6.00;;;;;27.62;39.37;99756.22;6284814;20;2748206;-59
2022/07/22 06:10:34;;;;;;;;;6.00;6.00;;;;;27.89;38.52;99751.75;6334394;20;2744011;-58
2022/07/22 06:13:03;;;;;;;;;5.00;5.00;;;;;28.02;38.30;99751.78;6315988;20;2749324;-60
2022/07/22 06:15:33;;;;;;;;;4.20;3.80;;;;;28.40;38.19;99765.06;6307388;20;2756661;-58
2022/07/22 06:18:01;;;;;;;;;4.33;3.00;;;;;28.40;35.43;99759.53;6284106;20;2732571;-58
2022/07/22 06:20:31;;;;;;;;;4.00;4.00;;;;;28.60;35.26;99766.00;6338146;20;2754588;-57
2022/07/22 06:23:01;;;;;;;;;4.60;3.80;;;;;28.93;33.14;99765.16;6307606;20;2749214;-56
2022/07/22 06:25:29;;;;;;;;;6.00;4.67;;;;;29.29;32.53;99767.53;6282543;20;2747528;-58
2022/07/22 06:28:11;;;;;;;;;5.40;5.00;;;;;29.24;32.39;99766.47;6338912;20;2733629;-59
2022/07/22 06:30:41;;;;;;;;;3.60;3.60;;;;;29.58;32.77;99770.06;6305605;20;2756601;-61
2022/07/22 06:33:11;;;;;;;;;5.40;4.40;;;;;29.70;31.91;99768.31;6311868;20;2747691;-60
2022/07/22 06:35:41;;;;;;;;;3.80;3.00;;;;;30.04;30.88;99771.84;6307640;20;2750297;-59
2022/07/22 06:38:11;;;;;;;;;4.80;4.00;;;;;30.68;30.56;99768.13;6310846;20;2744039;-61
2022/07/22 06:40:57;;;;;;;;;3.20;3.20;;;;;30.32;29.81;99769.59;6312433;20;2756541;-61
2022/07/22 06:43:30;;;;;;;;;3.40;3.40;;;;;29.90;30.88;99760.81;6310980;20;2748230;-61
2022/07/22 06:45:59;;;;;;;;;4.40;4.00;;;;;29.81;30.45;99766.84;6310488;20;2746089;-61
2022/07/22 06:48:29;;;;;;;;;4.00;4.00;;;;;30.09;30.83;99775.63;6310220;20;2751290;-62
2022/07/22 06:50:58;;;;;;;;;6.00;3.00;;;;;30.19;30.99;99777.94;6286961;20;2752336;-63
2022/07/22 06:53:27;;;;;;;;;5.00;3.40;;;;;31.07;29.98;99791.13;6342193;20;2756560;-62
2022/07/22 06:55:57;;;;;;;;;3.40;3.40;;;;;31.15;27.92;99785.28;6310339;20;2749324;-63
2022/07/22 06:58:34;;;;;;;;;3.20;3.00;;;;;31.59;28.04;99788.94;6310498;20;2742012;-58
2022/07/22 07:01:04;;;;;;;;;3.00;3.00;;;;;31.29;27.80;99783.22;6310387;20;2752525;-60
2022/07/22 07:03:33;;;;;;;;;2.00;2.00;;;;;31.78;27.34;99784.25;6311503;20;2748374;-60
2022/07/22 07:06:10;;;;;;;;;4.33;4.33;;;;;31.45;27.03;99779.91;6287411;20;2743003;-60
2022/07/22 07:08:41;;;;;;;;;3.00;3.00;;;;;32.02;26.50;99788.06;6342307;20;2754427;-60
2022/07/22 07:11:11;;;;;;;;;4.20;3.00;;;;;32.40;25.49;99786.91;6312980;20;2748169;-62
2022/07/22 07:13:40;;;;;;;;;2.80;2.40;;;;;31.98;26.05;99784.03;6305697;20;2748259;-61
2022/07/22 07:16:10;;;;;;;;;4.80;3.60;;;;;31.61;26.25;99781.22;6310134;20;2747121;-61
2022/07/22 07:18:40;;;;;;;;;5.20;3.00;;;;;31.86;26.11;99783.06;6312471;20;2756567;-59
2022/07/22 07:21:09;;;;;;;;;10.67;5.67;;;;;31.64;27.94;99777.97;6292929;20;2768366;-63
2022/07/22 07:23:38;;;;;;;;;3.60;3.60;;;;;31.53;26.41;99770.41;6339614;20;2750257;-60
2022/07/22 07:26:07;;;;;;;;;4.33;3.00;;;;;31.69;26.65;99774.53;6287744;20;2751337;-64
2022/07/22 07:28:36;;;;;;;;;5.00;3.00;;;;;31.47;25.38;99768.56;6317709;20;2752500;-64
2022/07/22 07:31:04;;;;;;;;;3.67;3.67;;;;;31.83;26.05;99775.22;6316657;20;2751330;-64
2022/07/22 07:33:35;;;;;;;;;3.20;3.20;;;;;31.79;25.55;99768.44;6339772;20;2752380;-62
2022/07/22 07:36:05;;;;;;;;;5.40;4.00;;;;;32.42;26.05;99770.88;6308939;20;2745259;-63
2022/07/22 07:38:36;;;;;;;;;3.40;3.40;;;;;32.73;26.27;99768.91;6307280;20;2745089;-63
2022/07/22 07:41:05;;;;;;;;;5.80;3.60;;;;;32.16;25.32;99762.91;6310956;20;2746300;-64
2022/07/22 07:43:34;;;;;;;;;4.33;3.33;;;;;32.43;25.20;99775.31;6288401;20;2745118;-63
2022/07/22 07:46:04;;;;;;;;;3.60;3.60;;;;;32.88;24.75;99774.06;6339952;20;2749303;-64
2022/07/22 07:48:33;;;;;;;;;2.67;2.33;;;;;32.88;25.69;99777.66;6285580;20;2743075;-63
2022/07/22 07:51:03;;;;;;;;;4.00;3.60;;;;;32.80;25.30;99780.81;6339849;20;2747187;-63
2022/07/22 07:53:32;;;;;;;;;4.33;2.00;;;;;32.91;25.79;99776.34;6283899;20;2754425;-64
2022/07/22 07:56:00;;;;;;;;;4.00;4.00;;;;;32.49;24.83;99780.00;6317599;20;2750286;-62
2022/07/22 07:58:30;;;;;;;;;4.00;3.00;;;;;31.96;27.33;99780.63;6313171;20;2754424;-64
2022/07/22 08:01:07;;;;;;;;;2.80;2.60;;;;;32.86;24.69;99785.44;6341033;20;2740879;-60
2022/07/22 08:03:37;;;;;;;;;3.60;3.60;;;;;33.11;25.41;99776.06;6309518;20;2747129;-60
2022/07/22 08:06:07;;;;;;;;;2.60;2.60;;;;;33.96;24.47;99783.91;6309364;20;2755526;-60
2022/07/22 08:08:36;;;;;;;;;3.00;3.00;;;;;33.99;23.47;99788.16;6286612;20;2753388;-58
2022/07/22 08:11:04;;;;;;;;;4.67;4.00;;;;;33.48;23.20;99781.41;6316207;20;2747157;-58
2022/07/22 08:13:33;;;;;;;;;3.33;3.33;;;;;33.25;24.37;99779.47;6312900;20;2756611;-60
2022/07/22 08:16:02;;;;;;;;;2.33;2.00;;;;;33.18;24.19;99782.38;6316374;20;2730471;-60
2022/07/22 08:18:31;;;;;;;;;5.00;4.00;;;;;32.28;26.04;99774.91;6313269;20;2746210;-61
2022/07/22 08:21:01;;;;;;;;;3.00;3.00;;;;;32.82;24.96;99777.78;6340362;20;2741921;-63
2022/07/22 08:23:30;;;;;;;;;4.00;4.00;;;;;32.69;25.04;99776.91;6309757;20;2742367;-64
2022/07/22 08:25:59;;;;;;;;;4.67;3.00;;;;;33.91;24.03;99775.44;6286483;20;2750268;-60
2022/07/22 08:28:27;;;;;;;;;3.00;2.00;;;;;34.38;22.72;99772.53;6316875;20;2748174;-60
2022/07/22 08:30:56;;;;;;;;;2.67;2.67;;;;;34.37;22.87;99772.81;6316665;20;2743028;-65
2022/07/22 08:33:25;;;;;;;;;4.33;2.00;;;;;34.40;23.39;99775.09;6316812;20;2751370;-60
2022/07/22 08:35:53;;;;;;;;;4.00;3.00;;;;;34.70;22.67;99777.63;6313143;20;2745084;-65
2022/07/22 08:38:22;;;;;;;;;2.33;2.33;;;;;34.77;22.93;99777.50;6314623;20;2756555;-59
2022/07/22 08:40:55;;;;;;;;;3.00;2.00;;;;;34.57;22.55;99777.91;6317614;20;2740933;-58
2022/07/22 08:43:36;;;;;;;;;3.67;2.00;;;;;34.36;22.75;99779.47;6314481;20;2739841;-60
2022/07/22 08:46:05;;;;;;;;;3.00;3.00;;;;;34.29;22.14;99783.25;6314074;20;2748374;-58
2022/07/22 08:48:37;;;;;;;;;3.00;3.00;;;;;34.92;22.70;99781.41;6323118;20;2754457;-59
2022/07/22 08:51:06;;;;;;;;;2.00;2.00;;;;;34.53;22.49;99775.63;6316659;20;2753450;-58
2022/07/22 08:53:35;;;;;;;;;3.00;3.00;;;;;34.40;22.49;99773.16;6315550;20;2754478;-58
2022/07/22 08:56:05;;;;;;;;;3.33;3.33;;;;;34.95;22.29;99780.06;6314683;20;2751361;-59
2022/07/22 08:58:33;;;;;;;;;3.00;3.00;;;;;34.46;22.21;99785.25;6317163;20;2753434;-61
2022/07/22 09:01:17;;;;;;;;;3.00;3.00;;;;;34.12;22.09;99779.53;6314496;20;2750251;-62
2022/07/22 09:03:57;;;;;;;;;2.33;1.33;;;;;33.15;22.38;99766.13;6314625;20;2750288;-60
2022/07/22 09:06:33;;;;;;;;;2.40;2.40;;;;;33.67;21.48;99769.06;6338643;20;2730470;-60
2022/07/22 09:09:07;;;;;;;;;2.20;1.60;;;;;34.44;20.23;99768.78;6306033;20;2738878;-61
2022/07/22 09:11:42;;;;;;;;;2.40;2.40;;;;;34.75;20.19;99770.19;6308471;20;2741971;-61
2022/07/22 09:14:10;;;;;;;;;2.00;1.67;;;;;34.62;20.42;99770.50;6286402;20;2740895;-58
2022/07/22 09:16:48;;;;;;;;;1.00;1.00;;;;;34.75;20.09;99764.63;6312057;20;2726320;-58
2022/07/22 09:19:33;;;;;;;;;4.00;3.40;;;;;34.88;19.86;99759.81;6338392;20;2753394;-59
2022/07/22 09:22:04;;;;;;;;;3.00;3.00;;;;;34.57;20.84;99756.47;6307721;20;2751368;-59
2022/07/22 09:24:35;;;;;;;;;2.67;2.67;;;;;36.04;19.27;99759.94;6282277;20;2754461;-59
2022/07/22 09:27:06;;;;;;;;;2.00;2.00;;;;;36.24;19.56;99762.19;6315486;20;2732016;-58
2022/07/22 09:29:35;;;;;;;;;6.00;2.50;;;;;34.64;20.26;99757.16;6320655;20;2629483;-60
2022/07/22 09:32:07;;;;;;;;;0.00;0.00;;;;;35.17;19.88;99758.66;6339978;20;2726519;-59
2022/07/22 09:34:37;;;;;;;;;2.00;2.00;;;;;35.39;20.14;99757.91;6285497;20;2739867;-61
2022/07/22 09:37:06;;;;;;;;;3.00;3.00;;;;;35.93;19.48;99763.72;6312190;20;2755493;-62
2022/07/22 09:39:35;;;;;;;;;2.00;2.00;;;;;35.68;19.62;99760.56;6315911;20;2739916;-62
2022/07/22 09:42:07;;;;;;;;;5.00;3.67;;;;;35.07;20.43;99749.25;6314055;20;2749386;-61
2022/07/22 09:44:36;;;;;;;;;3.00;3.00;;;;;34.69;20.48;99754.47;6314547;20;2755484;-60
2022/07/22 09:47:04;;;;;;;;;5.00;2.67;;;;;35.21;20.52;99749.81;6309064;20;2752405;-64
2022/07/22 09:49:41;;;;;;;;;4.00;4.00;;;;;35.72;20.22;99756.16;6309797;20;2740877;-61
2022/07/22 09:52:09;;;;;;;;;5.00;3.00;;;;;35.46;20.86;99752.97;6310654;20;2746083;-62
2022/07/22 09:54:38;;;;;;;;;4.33;3.67;;;;;36.37;20.24;99758.13;6314447;20;2739974;-61
2022/07/22 09:57:09;;;;;;;;;4.67;2.00;;;;;35.44;20.19;99749.56;6309965;20;2724266;-64
2022/07/22 09:59:38;;;;;;;;;3.00;3.00;;;;;36.29;19.55;99744.63;6313499;20;2748163;-62
2022/07/22 10:02:09;;;;;;;;;5.67;2.00;;;;;37.33;19.32;99753.72;6311747;20;2744078;-62
2022/07/22 10:04:40;;;;;;;;;2.00;2.00;;;;;36.98;19.03;99738.31;6311439;20;2739858;-62
2022/07/22 10:07:09;;;;;;;;;2.00;2.00;;;;;37.59;18.98;99745.53;6306184;20;2752413;-64
2022/07/22 10:09:39;;;;;;;;;4.00;4.00;;;;;37.06;19.10;99740.66;6311987;20;2745111;-64
2022/07/22 10:12:09;;;;;;;;;5.00;4.00;;;;;37.09;18.62;99742.06;6311981;20;2745058;-62
2022/07/22 10:14:37;;;;;;;;;4.00;4.00;;;;;35.79;20.74;99728.88;6311540;20;2748162;-65
2022/07/22 10:17:06;;;;;;;;;5.00;5.00;;;;;36.83;20.04;99733.44;6313154;20;2743087;-65
2022/07/22 10:19:36;;;;;;;;;5.33;5.00;;;;;36.51;20.11;99732.53;6313065;20;2746191;-63
2022/07/22 10:22:04;;;;;;;;;4.00;3.00;;;;;36.88;19.49;99736.25;6310713;20;2735842;-63
2022/07/22 10:24:34;;;;;;;;;5.00;3.60;;;;;37.33;19.37;99725.72;6337232;20;2740311;-61
2022/07/22 10:27:03;;;;;;;;;4.67;4.67;;;;;37.66;19.35;99723.72;6281737;20;2746203;-63
2022/07/22 10:29:43;;;;;;;;;2.33;2.33;;;;;38.49;19.00;99729.38;6312902;20;2756502;-63
2022/07/22 10:32:17;;;;;;;;;4.00;4.00;;;;;37.97;19.46;99724.69;6312097;20;2737795;-61
2022/07/22 10:34:58;;;;;;;;;8.00;4.33;;;;;37.42;19.40;99717.63;6312753;20;2743077;-61
2022/07/22 10:37:49;;;;;;;;;6.00;4.00;;;;;37.66;19.12;99723.72;6312865;20;2741978;-62
2022/07/22 10:40:31;;;;;;;;;5.33;5.33;;;;;37.38;19.16;99722.94;6311160;20;2734656;-60
2022/07/22 10:43:10;;;;;;;;;5.67;5.67;;;;;37.24;19.83;99719.78;6310915;20;2737785;-62
2022/07/22 10:45:48;;;;;;;;;7.00;7.00;;;;;36.96;20.23;99708.91;6314892;20;2728391;-63
2022/07/22 10:48:32;;;;;;;;;5.00;5.00;;;;;37.92;19.12;99713.47;6316041;20;2732563;-60
2022/07/22 10:51:21;;;;;;;;;7.00;5.00;;;;;37.15;19.73;99703.75;6314923;20;2748320;-61
2022/07/22 10:54:02;;;;;;;;;7.00;6.00;;;;;37.68;19.02;99705.50;6312426;20;2734178;-60
2022/07/22 10:56:35;;;;;;;;;9.33;6.00;;;;;37.86;19.16;99700.53;6312412;20;2745059;-61
2022/07/22 10:59:19;;;;;;;;;4.33;4.33;;;;;37.38;19.47;99705.31;6318759;20;2738813;-58
2022/07/22 11:01:53;;;;;;;;;4.00;3.00;;;;;38.18;18.65;99700.38;6318221;20;2742986;-61
2022/07/22 11:04:26;;;;;;;;;3.00;3.00;;;;;37.65;19.71;99706.03;6320563;20;2735691;-65
2022/07/22 11:06:58;;;;;;;;;4.33;4.33;;;;;37.99;19.19;99694.44;6314507;20;2740924;-63
2022/07/22 11:09:35;;;;;;;;;4.00;4.00;;;;;37.93;19.16;99699.16;6317097;20;2748282;-62
2022/07/22 11:12:04;;;;;;;;;5.00;5.00;;;;;37.69;19.40;99695.97;6318717;20;2744040;-64
2022/07/22 11:14:35;;;;;;;;;5.33;5.33;;;;;37.29;20.09;99683.41;6315997;20;2748581;-64
2022/07/22 11:17:13;;;;;;;;;4.00;3.33;;;;;38.43;19.05;99694.00;6314778;20;2737765;-62
2022/07/22 11:19:43;;;;;;;;;5.00;5.00;;;;;38.08;19.04;99686.34;6318191;20;2738825;-61
2022/07/22 11:22:15;;;;;;;;;8.00;5.00;;;;;38.60;18.69;99686.19;6322574;20;2749263;-60
2022/07/22 11:24:49;;;;;;;;;5.67;5.67;;;;;38.44;19.03;99695.69;6327181;20;2744076;-59
2022/07/22 11:27:22;;;;;;;;;6.00;6.00;;;;;37.88;19.16;99687.09;6316220;20;2736700;-62
2022/07/22 11:29:54;;;;;;;;;6.00;5.00;;;;;37.90;19.68;99680.09;6317721;20;2740890;-62